Time;durP1;ratioP1;P1;durP2;ratioP2;P2;SDS_P1;SDS_P2;PMS_P1;PMS_P2;Temp;Humidity;BMP_temperature;BMP_pressure;BME280_temperature;BME280_humidity;BME280_pressure;Samples;Min_cycle;Max_cycle;Signal;HPM_P1;HPM_P2
2022/03/24 00:00:39;;;;;;;20.70;9.50;;;;;;;5.57;27.59;99970.42;25114;1315;3027041;-68
2022/03/24 00:03:08;;;;;;;17.30;9.20;;;;;;;5.56;27.51;99965.77;25149;1315;3049536;-67
2022/03/24 00:05:37;;;;;;;17.00;8.10;;;;;;;5.48;27.74;99957.84;25108;1315;3028860;-70
2022/03/24 00:08:25;;;;;;;14.90;8.20;;;;;;;5.44;27.81;99961.60;25123;1315;3069805;-70
2022/03/24 00:10:54;;;;;;;21.60;9.60;;;;;;;5.18;28.18;99962.58;25123;1316;3026743;-67
2022/03/24 00:13:44;;;;;;;16.60;8.40;;;;;;;5.13;28.25;99959.10;25134;1315;3054034;-68
2022/03/24 00:16:18;;;;;;;17.20;9.30;;;;;;;5.16;28.14;99951.73;25078;1315;3026796;-68
2022/03/24 00:19:07;;;;;;;21.80;9.30;;;;;;;5.11;28.15;99945.62;25156;1316;3051951;-68
2022/03/24 00:21:36;;;;;;;22.30;9.40;;;;;;;5.12;28.38;99946.46;25135;1314;3027255;-68
2022/03/24 00:24:10;;;;;;;20.70;10.20;;;;;;;4.92;29.00;99940.12;25140;1315;3028230;-67
2022/03/24 00:26:38;;;;;;;20.20;9.00;;;;;;;4.98;28.83;99937.33;25127;1315;3026709;-69
2022/03/24 00:29:09;;;;;;;17.90;8.80;;;;;;;5.01;28.79;99935.86;25170;1315;3054408;-70
2022/03/24 00:31:38;;;;;;;24.10;9.70;;;;;;;4.99;28.80;99930.52;25160;1314;3028650;-66
2022/03/24 00:34:09;;;;;;;28.70;10.70;;;;;;;5.01;28.94;99929.06;25114;1315;3026180;-67
2022/03/24 00:36:39;;;;;;;19.30;9.50;;;;;;;4.97;28.93;99922.42;25187;1315;3026523;-67
2022/03/24 00:39:09;;;;;;;23.80;10.70;;;;;;;4.93;28.89;99919.91;25125;1316;3027657;-67
2022/03/24 00:41:38;;;;;;;23.80;11.00;;;;;;;4.89;29.03;99919.35;25122;1315;3026727;-70
2022/03/24 00:44:08;;;;;;;21.30;10.70;;;;;;;4.82;29.22;99912.61;25047;1315;3052212;-68
2022/03/24 00:46:37;;;;;;;24.60;12.30;;;;;;;4.77;29.26;99909.48;25192;1315;3026530;-67
2022/03/24 00:49:06;;;;;;;24.70;11.30;;;;;;;4.85;29.28;99904.91;25115;1316;3054505;-68
2022/03/24 00:51:35;;;;;;;23.40;9.20;;;;;;;4.82;29.20;99904.27;25121;1315;3028314;-68
2022/03/24 00:54:07;;;;;;;27.60;11.20;;;;;;;4.73;29.23;99900.22;25123;1315;3051406;-69
2022/03/24 00:56:36;;;;;;;26.20;11.20;;;;;;;4.73;29.15;99900.06;25101;1315;3026663;-67
2022/03/24 00:59:05;;;;;;;26.00;11.50;;;;;;;4.77;29.21;99891.08;25152;1316;3028291;-70
2022/03/24 01:01:34;;;;;;;28.70;12.90;;;;;;;4.76;29.04;99892.30;25165;1315;3053924;-68
2022/03/24 01:04:09;;;;;;;29.10;14.00;;;;;;;4.70;29.23;99890.41;25109;1316;3026836;-68
2022/03/24 01:06:39;;;;;;;;;;;;;;;4.71;29.32;99888.66;25131;1315;3049396;-67
2022/03/24 01:09:08;;;;;;;32.00;14.50;;;;;;;4.65;29.37;99884.65;25136;1315;3026835;-67
2022/03/24 01:11:37;;;;;;;39.80;16.30;;;;;;;4.57;29.63;99881.80;25148;1316;3057371;-67
2022/03/24 01:14:07;;;;;;;45.90;18.60;;;;;;;4.47;29.75;99878.77;25116;1316;3028251;-67
2022/03/24 01:16:36;;;;;;;41.60;17.80;;;;;;;4.51;29.48;99872.07;25157;1315;3052661;-70
2022/03/24 01:19:08;;;;;;;35.20;17.30;;;;;;;4.43;29.61;99873.69;25057;1316;3028412;-68
2022/03/24 01:21:38;;;;;;;41.40;18.30;;;;;;;4.42;29.78;99869.54;25041;1315;3026247;-67
2022/03/24 01:24:08;;;;;;;48.90;19.20;;;;;;;4.37;29.59;99864.33;25052;1316;3027435;-68
2022/03/24 01:26:41;;;;;;;45.30;18.40;;;;;;;4.32;29.68;99865.68;25151;1316;3051128;-67
2022/03/24 01:29:11;;;;;;;45.10;17.50;;;;;;;4.25;29.93;99861.89;25116;1315;3028604;-68
2022/03/24 01:31:42;;;;;;;39.60;17.80;;;;;;;4.21;29.98;99864.09;25165;1315;3055051;-68
2022/03/24 01:34:11;;;;;;;43.20;17.30;;;;;;;4.21;30.05;99858.52;25118;1315;3027553;-69
2022/03/24 01:36:40;;;;;;;36.00;14.90;;;;;;;4.26;30.03;99851.44;25115;1316;3026739;-67
2022/03/24 01:39:10;;;;;;;32.40;15.00;;;;;;;4.30;29.72;99854.46;25126;1315;3027350;-68
2022/03/24 01:41:40;;;;;;;30.90;13.90;;;;;;;4.29;29.72;99851.19;25090;1316;3026768;-67
2022/03/24 01:44:12;;;;;;;30.70;15.40;;;;;;;4.33;30.02;99846.40;25119;1315;3029216;-67
2022/03/24 01:46:56;;;;;;;37.50;14.80;;;;;;;4.37;29.98;99850.45;25109;1316;3056869;-69
2022/03/24 01:49:28;;;;;;;36.40;16.70;;;;;;;4.34;29.93;99844.97;25108;1318;3053154;-67
2022/03/24 01:51:58;;;;;;;38.50;16.30;;;;;;;4.27;30.22;99841.36;25147;1315;3026457;-67
2022/03/24 01:54:30;;;;;;;50.50;19.50;;;;;;;4.23;30.41;99839.56;25119;1316;3027303;-69
2022/03/24 01:56:59;;;;;;;35.30;16.90;;;;;;;4.00;30.80;99843.33;25142;1316;3051258;-68
2022/03/24 01:59:28;;;;;;;42.20;19.10;;;;;;;3.90;31.03;99841.68;25121;1314;3028380;-68
2022/03/24 02:01:59;;;;;;;40.30;18.60;;;;;;;3.79;31.37;99846.13;25139;1318;3058137;-71
2022/03/24 02:04:30;;;;;;;49.10;22.80;;;;;;;3.69;31.37;99841.21;25133;1315;3026262;-67
2022/03/24 02:07:00;;;;;;;49.50;22.80;;;;;;;3.64;31.72;99846.89;25109;1315;3026293;-69
2022/03/24 02:09:49;;;;;;;57.60;25.00;;;;;;;3.54;32.23;99845.23;25125;1315;3052814;-67
2022/03/24 02:12:23;;;;;;;50.20;23.10;;;;;;;3.27;33.38;99842.80;25127;1316;3027327;-70
2022/03/24 02:15:09;;;;;;;40.90;18.40;;;;;;;3.19;33.35;99840.58;25123;1316;3051502;-70
2022/03/24 02:17:43;;;;;;;45.80;19.00;;;;;;;3.16;33.04;99835.95;25153;1316;3055360;-68
2022/03/24 02:20:35;;;;;;;32.70;14.70;;;;;;;3.19;33.05;99832.44;25116;1315;3051805;-69
2022/03/24 02:23:07;;;;;;;35.60;17.40;;;;;;;3.13;33.28;99828.73;25150;1315;3058729;-70
2022/03/24 02:25:38;;;;;;;35.40;15.60;;;;;;;3.04;33.59;99835.57;25144;1316;3028659;-70
2022/03/24 02:28:10;;;;;;;39.60;16.70;;;;;;;2.97;33.52;99833.13;25137;1315;3026887;-71
2022/03/24 02:30:39;;;;;;;37.20;17.30;;;;;;;2.99;33.32;99830.83;25183;1315;3026586;-69
2022/03/24 02:33:11;;;;;;;32.60;15.20;;;;;;;3.04;33.25;99825.70;25116;1316;3026875;-69
2022/03/24 02:35:41;;;;;;;30.00;11.70;;;;;;;2.96;33.51;99825.86;25105;1316;3026793;-67
2022/03/24 02:38:10;;;;;;;33.30;13.60;;;;;;;3.04;33.28;99825.85;25047;1315;3026420;-71
2022/03/24 02:40:40;;;;;;;40.80;15.60;;;;;;;2.97;33.38;99819.98;25055;1315;3068287;-68
2022/03/24 02:43:09;;;;;;;29.40;14.30;;;;;;;3.00;33.37;99816.95;25148;1315;3027076;-69
2022/03/24 02:45:39;;;;;;;31.80;13.80;;;;;;;3.09;33.29;99817.61;25152;1316;3027323;-68
2022/03/24 02:48:12;;;;;;;35.00;15.90;;;;;;;3.18;33.00;99811.69;25144;1316;3028090;-68
2022/03/24 02:50:42;;;;;;;34.90;15.20;;;;;;;3.21;32.94;99806.41;25137;1315;3029760;-68
2022/03/24 02:53:14;;;;;;;31.20;14.60;;;;;;;3.10;33.37;99807.38;25152;1316;3028473;-68
2022/03/24 02:55:44;;;;;;;30.80;15.00;;;;;;;3.06;33.28;99804.02;25118;1316;3026669;-67
2022/03/24 02:58:17;;;;;;;25.40;12.80;;;;;;;3.06;33.34;99801.58;25152;1315;3027298;-70
2022/03/24 03:00:47;;;;;;;31.70;13.00;;;;;;;3.08;33.50;99799.81;25162;1316;3026830;-69
2022/03/24 03:03:18;;;;;;;35.80;16.00;;;;;;;3.08;33.44;99801.89;25188;1315;3026851;-70
2022/03/24 03:05:48;;;;;;;29.70;14.90;;;;;;;3.07;33.52;99801.91;25195;1316;3027658;-67
2022/03/24 03:08:21;;;;;;;36.60;15.20;;;;;;;3.03;33.51;99796.99;25169;1315;3027295;-69
2022/03/24 03:11:10;;;;;;;29.00;13.30;;;;;;;3.02;33.57;99800.64;24813;1316;3464058;-67
2022/03/24 03:13:39;;;;;;;27.90;13.50;;;;;;;2.88;34.08;99802.17;25139;1315;3026880;-68
2022/03/24 03:16:28;;;;;;;32.10;15.40;;;;;;;2.87;34.04;99802.92;25152;1316;3054625;-69
2022/03/24 03:18:58;;;;;;;30.30;14.50;;;;;;;2.89;34.12;99802.85;25076;1316;3028788;-67
2022/03/24 03:21:50;;;;;;;34.30;15.40;;;;;;;2.83;34.55;99805.77;25129;1316;3068865;-69
2022/03/24 03:24:22;;;;;;;33.90;16.00;;;;;;;2.77;34.80;99804.16;25170;1315;3026533;-67
2022/03/24 03:26:55;;;;;;;29.90;15.10;;;;;;;2.56;35.69;99799.27;25131;1316;3026481;-67
2022/03/24 03:29:27;;;;;;;38.60;16.00;;;;;;;2.43;35.96;99796.46;25141;1319;3029937;-70
2022/03/24 03:31:57;;;;;;;35.80;16.80;;;;;;;2.37;35.97;99788.29;25151;1316;3026764;-69
2022/03/24 03:34:28;;;;;;;30.90;14.30;;;;;;;2.36;35.61;99786.76;25150;1315;3027353;-68
2022/03/24 03:37:01;;;;;;;31.60;15.40;;;;;;;2.36;35.69;99784.01;25066;1315;3029514;-68
2022/03/24 03:39:31;;;;;;;30.40;15.00;;;;;;;2.36;35.70;99780.72;25073;1315;3028410;-69
2022/03/24 03:42:01;;;;;;;31.50;15.50;;;;;;;2.40;35.49;99780.45;25033;1319;3028241;-67
2022/03/24 03:45:02;;;;;;;26.50;13.80;;;;;;;2.44;35.38;99777.77;25109;1315;3050606;-71
2022/03/24 03:47:32;;;;;;;28.30;15.10;;;;;;;2.37;35.81;99775.33;25122;1316;3053660;-71
2022/03/24 03:50:05;;;;;;;28.90;13.60;;;;;;;2.29;36.12;99776.21;25202;1315;3026377;-70
2022/03/24 03:52:34;;;;;;;27.90;14.50;;;;;;;2.22;36.48;99776.67;25103;1319;3058712;-68
2022/03/24 03:55:06;;;;;;;43.00;14.20;;;;;;;2.19;36.39;99778.48;25169;1315;3026885;-69
2022/03/24 03:57:43;;;;;;;31.10;13.70;;;;;;;2.21;36.45;99773.78;25226;1315;3051747;-68
2022/03/24 04:03:09;;;;;;;26.60;13.40;;;;;;;2.27;36.60;99765.00;25098;1316;3048672;-68
2022/03/24 04:05:48;;;;;;;30.10;14.10;;;;;;;2.27;36.51;99763.29;25239;1315;3053809;-69
2022/03/24 04:08:28;;;;;;;31.20;14.50;;;;;;;2.21;36.64;99764.97;25160;1315;3052527;-70
2022/03/24 04:14:29;;;;;;;34.30;14.20;;;;;;;2.12;37.24;99764.97;25203;1316;3051864;-68
2022/03/24 04:17:27;;;;;;;33.10;16.50;;;;;;;2.08;37.32;99761.60;25239;1315;3052647;-67
2022/03/24 04:24:34;;;;;;;30.70;14.50;;;;;;;2.02;37.88;99763.45;24950;1324;3059825;-70
2022/03/24 04:27:12;;;;;;;35.30;15.70;;;;;;;2.01;37.93;99762.10;25216;1315;3027105;-72
2022/03/24 04:32:45;;;;;;;34.30;15.90;;;;;;;1.94;38.47;99762.06;31700;1318;3026224;-69
2022/03/24 04:35:38;;;;;;;47.70;24.40;;;;;;;2.23;38.15;99759.58;25120;1316;3051215;-70
2022/03/24 04:41:48;;;;;;;33.50;16.30;;;;;;;2.21;37.68;99751.98;25193;1315;3059236;-68
2022/03/24 04:47:55;;;;;;;45.90;23.30;;;;;;;2.39;37.38;99756.77;25245;1315;3050825;-72
2022/03/24 04:50:43;;;;;;;41.80;18.90;;;;;;;2.52;36.89;99753.89;25252;1312;3026537;-71
2022/03/24 04:56:38;;;;;;;48.70;20.10;;;;;;;2.19;37.58;99750.65;25148;1314;3053374;-69
2022/03/24 04:59:12;;;;;;;48.30;19.70;;;;;;;2.14;37.73;99747.12;25218;1315;3051246;-69
2022/03/24 05:01:49;;;;;;;39.40;18.30;;;;;;;2.09;37.98;99743.78;25119;1314;3026508;-71
2022/03/24 05:04:28;;;;;;;44.00;21.20;;;;;;;2.06;37.99;99743.70;25162;1315;3048335;-72
2022/03/24 05:07:04;;;;;;;51.40;22.70;;;;;;;2.09;38.05;99742.22;25146;1315;3052843;-69
2022/03/24 05:09:38;;;;;;;37.40;15.50;;;;;;;2.17;37.79;99746.38;25176;1316;3053979;-72
2022/03/24 05:12:30;;;;;;;49.50;20.10;;;;;;;2.15;37.73;99749.54;25227;1315;3028585;-71
2022/03/24 05:19:19;;;;;;;43.70;17.60;;;;;;;2.26;37.84;99749.28;25188;1315;3053830;-70
2022/03/24 05:22:48;;;;;;;34.80;17.50;;;;;;;2.30;38.16;99750.58;25227;1315;3053249;-69
2022/03/24 05:25:48;;;;;;;40.00;17.50;;;;;;;2.31;38.27;99749.52;25162;1315;3071647;-70
2022/03/24 05:34:16;;;;;;;53.70;18.20;;;;;;;2.43;38.72;99743.02;25088;1315;3054741;-71
2022/03/24 05:36:42;;;;;;;26.60;13.50;;;;;;;2.48;38.42;99743.27;25155;1314;3051619;-70
2022/03/24 05:39:14;;;;;;;28.50;13.40;;;;;;;2.53;39.16;99742.98;25162;1315;3056928;-70
2022/03/24 05:41:58;;;;;;;33.30;15.90;;;;;;;2.54;39.58;99742.10;25255;1315;3028294;-71
2022/03/24 05:49:34;;;;;;;27.90;14.30;;;;;;;2.66;39.67;99737.48;25105;1320;3056344;-70
2022/03/24 05:52:04;;;;;;;29.90;13.50;;;;;;;2.80;39.34;99736.29;25002;1315;3028525;-69
2022/03/24 05:58:21;;;;;;;34.70;14.30;;;;;;;2.96;39.01;99733.47;25168;1314;3053150;-70
2022/03/24 06:01:33;;;;;;;28.40;13.80;;;;;;;3.06;39.01;99734.25;25105;1315;3069030;-69
2022/03/24 06:04:18;;;;;;;26.50;13.10;;;;;;;3.20;39.06;99731.31;25193;1315;3048964;-68
2022/03/24 06:06:56;;;;;;;24.60;11.40;;;;;;;3.25;39.17;99728.95;25156;1314;3026829;-69
2022/03/24 06:10:23;;;;;;;29.80;13.00;;;;;;;3.40;38.79;99730.45;25160;1315;3054629;-69
2022/03/24 06:13:18;;;;;;;21.90;11.30;;;;;;;3.50;38.39;99730.70;25210;1315;3056466;-71
2022/03/24 06:16:17;;;;;;;24.90;12.10;;;;;;;3.59;38.11;99725.77;25188;1315;3052565;-70
2022/03/24 06:18:47;;;;;;;30.10;12.40;;;;;;;3.75;38.05;99722.39;25217;1315;3027239;-72
2022/03/24 06:21:42;;;;;;;27.40;12.90;;;;;;;3.85;38.54;99721.05;25147;1315;3051789;-71
2022/03/24 06:24:12;;;;;;;28.10;12.20;;;;;;;4.00;38.12;99713.86;25141;1315;3026713;-69
2022/03/24 06:26:58;;;;;;;26.30;12.20;;;;;;;4.18;38.12;99714.52;25207;1315;3026689;-69
2022/03/24 06:30:10;;;;;;;29.50;11.20;;;;;;;4.35;37.15;99710.73;25187;1315;3052906;-70
2022/03/24 06:32:42;;;;;;;;;;;;;;;4.56;36.93;99704.85;25139;1313;3052561;-69
2022/03/24 06:35:18;;;;;;;20.30;8.80;;;;;;;4.57;36.30;99709.50;25169;1313;3026688;-68
2022/03/24 06:37:58;;;;;;;26.90;10.40;;;;;;;4.76;35.87;99706.27;25163;1312;3051381;-70
2022/03/24 06:40:39;;;;;;;20.50;9.10;;;;;;;4.92;35.88;99702.45;25144;1312;3053489;-69
2022/03/24 06:43:13;;;;;;;19.50;9.40;;;;;;;5.13;34.87;99703.64;25189;1312;3053160;-69
2022/03/24 06:45:54;;;;;;;16.90;8.00;;;;;;;5.28;34.75;99704.01;25186;1312;3026444;-71
2022/03/24 06:48:26;;;;;;;18.60;8.10;;;;;;;5.44;34.03;99707.96;25140;1313;3053104;-69
2022/03/24 06:50:55;;;;;;;17.70;8.00;;;;;;;5.50;33.87;99704.08;25210;1312;3029856;-72
2022/03/24 06:53:46;;;;;;;22.00;7.50;;;;;;;5.59;33.49;99705.16;25235;1312;3052658;-72
2022/03/24 06:56:19;;;;;;;17.10;7.70;;;;;;;5.76;33.06;99699.33;25198;1312;3053920;-69
2022/03/24 06:58:49;;;;;;;21.20;8.60;;;;;;;5.90;33.14;99698.11;25132;1312;3026455;-70
2022/03/24 07:09:56;;;;;;;20.00;7.70;;;;;;;6.33;32.65;99696.52;25205;1312;3051913;-69
2022/03/24 07:12:56;;;;;;;21.20;7.20;;;;;;;6.60;31.81;99687.95;25056;1313;3054948;-70
2022/03/24 07:15:49;;;;;;;18.30;7.40;;;;;;;6.74;30.62;99683.71;25176;1313;3055101;-69
2022/03/24 07:22:09;;;;;;;15.20;5.40;;;;;;;6.96;29.91;99681.09;25312;1313;3053559;-69
2022/03/24 07:25:06;;;;;;;13.20;6.30;;;;;;;7.19;30.10;99671.05;25223;1312;3026920;-70
2022/03/24 07:27:40;;;;;;;153.30;43.50;;;;;;;7.42;29.90;99670.72;25271;1312;3049508;-70
2022/03/24 07:30:10;;;;;;;33.80;13.40;;;;;;;7.57;30.04;99672.70;25240;1312;3026526;-69
2022/03/24 07:32:40;;;;;;;19.10;7.20;;;;;;;7.66;29.36;99675.55;25293;1312;3026375;-69
2022/03/24 07:35:10;;;;;;;18.00;8.60;;;;;;;7.65;28.99;99673.00;25188;1313;3027193;-69
2022/03/24 07:37:39;;;;;;;24.60;9.90;;;;;;;7.72;29.39;99678.80;25156;1313;3027610;-70
2022/03/24 07:41:00;;;;;;;24.00;9.50;;;;;;;7.76;29.50;99673.75;25187;1312;3028543;-70
2022/03/24 07:43:44;;;;;;;15.80;7.10;;;;;;;7.76;28.82;99672.69;25351;1316;3068908;-70
2022/03/24 07:46:43;;;;;;;23.40;7.40;;;;;;;7.92;28.69;99675.83;25336;1313;3053483;-71
2022/03/24 07:49:16;;;;;;;16.90;7.30;;;;;;;7.99;28.60;99669.04;25231;1312;3052787;-69
2022/03/24 07:51:58;;;;;;;14.40;7.30;;;;;;;8.01;28.38;99664.02;25143;1313;3052544;-70
2022/03/24 08:02:16;;;;;;;23.90;11.40;;;;;;;8.46;27.72;99646.76;25238;1313;3052791;-70
2022/03/24 08:04:48;;;;;;;18.00;9.10;;;;;;;8.55;27.30;99640.55;25226;1313;3049668;-71
2022/03/24 08:07:59;;;;;;;17.60;7.40;;;;;;;8.58;27.39;99633.26;25196;1314;3068176;-70
2022/03/24 08:10:58;;;;;;;25.90;10.90;;;;;;;8.71;27.52;99623.52;25111;1313;3049864;-69
2022/03/24 08:13:33;;;;;;;25.00;11.00;;;;;;;8.96;27.57;99618.26;25206;1313;3053380;-70
2022/03/24 08:16:31;;;;;;;43.00;18.10;;;;;;;9.11;26.91;99611.88;25273;1313;3052506;-70
2022/03/24 08:19:01;;;;;;;32.70;13.70;;;;;;;9.22;27.15;99610.27;25170;1313;3026958;-70
2022/03/24 08:21:56;;;;;;;21.10;9.30;;;;;;;9.34;26.75;99607.55;25198;1313;3052742;-69
2022/03/24 08:24:31;;;;;;;18.80;8.90;;;;;;;9.39;26.23;99607.27;25234;1313;3054010;-71
2022/03/24 08:27:01;;;;;;;28.50;10.20;;;;;;;9.43;26.02;99603.56;25174;1313;3027061;-69
2022/03/24 08:29:33;;;;;;;22.30;9.50;;;;;;;9.43;26.28;99603.20;25147;1313;3026382;-70
2022/03/24 08:32:09;;;;;;;18.80;8.60;;;;;;;9.57;26.25;99596.71;25188;1314;3026845;-69
2022/03/24 08:34:39;;;;;;;28.80;13.30;;;;;;;9.75;26.14;99595.01;25264;1313;3052530;-70
2022/03/24 08:37:08;;;;;;;22.70;9.70;;;;;;;9.67;26.04;99594.02;25195;1311;3026223;-69
2022/03/24 08:39:39;;;;;;;25.00;11.70;;;;;;;9.64;26.49;99591.24;25134;1315;3050374;-71
2022/03/24 08:42:08;;;;;;;26.00;10.40;;;;;;;9.81;26.59;99589.94;25130;1315;3028914;-70
2022/03/24 08:44:40;;;;;;;21.00;9.10;;;;;;;10.01;26.80;99584.64;25176;1313;3026607;-70
2022/03/24 08:47:39;;;;;;;19.30;10.20;;;;;;;10.20;26.49;99581.30;25248;1313;3059406;-70
2022/03/24 08:50:10;;;;;;;20.10;9.10;;;;;;;10.34;26.60;99577.01;25168;1313;3052419;-71
2022/03/24 08:52:55;;;;;;;25.20;7.90;;;;;;;10.40;26.32;99571.43;25258;1313;3026875;-70
2022/03/24 08:55:46;;;;;;;;;;;;;;;;;;;;;
2022/03/24 08:58:54;;;;;;;;;;;;;;;;;;;;;
2022/03/24 09:01:24;;;;;;;40.90;9.40;;;;;;;10.50;25.90;99564.19;25146;1311;3051889;-70
2022/03/24 09:03:54;;;;;;;23.70;9.70;;;;;;;10.59;25.97;99561.74;25170;1313;3030295;-70
2022/03/24 09:06:46;;;;;;;18.80;9.00;;;;;;;10.57;25.89;99560.61;25195;1313;3051967;-70
2022/03/24 09:09:35;;;;;;;20.20;8.90;;;;;;;10.40;26.10;99556.37;25155;1313;3056293;-70
2022/03/24 09:12:07;;;;;;;24.70;9.80;;;;;;;10.65;25.90;99548.92;25176;1312;3028947;-70
2022/03/24 09:14:55;;;;;;;15.50;8.50;;;;;;;10.87;25.73;99549.37;25126;1312;3055721;-69
2022/03/24 09:17:25;;;;;;;13.20;8.10;;;;;;;10.88;24.93;99544.80;25190;1313;3026032;-71
2022/03/24 09:20:16;;;;;;;23.60;9.40;;;;;;;10.96;25.13;99543.94;25131;1316;3049853;-71
2022/03/24 09:22:46;;;;;;;21.90;9.30;;;;;;;10.95;25.22;99542.45;25205;1313;3026946;-70
2022/03/24 09:25:16;;;;;;;21.60;8.40;;;;;;;10.75;25.25;99541.17;25189;1313;3028153;-70
2022/03/24 09:27:46;;;;;;;16.80;8.00;;;;;;;10.89;25.20;99531.71;25153;1313;3027558;-70
2022/03/24 09:30:18;;;;;;;16.20;8.30;;;;;;;11.03;24.80;99530.55;25170;1314;3026788;-70
2022/03/24 09:32:47;;;;;;;23.00;9.80;;;;;;;11.15;24.58;99529.30;25173;1313;3052891;-70
2022/03/24 09:35:16;;;;;;;20.90;9.30;;;;;;;11.28;24.42;99520.58;25137;1313;3027490;-70
2022/03/24 09:37:47;;;;;;;25.10;8.00;;;;;;;11.49;24.17;99515.06;25109;1316;3027400;-70
2022/03/24 09:40:17;;;;;;;13.60;7.10;;;;;;;11.53;23.74;99514.45;25199;1313;3027519;-70
2022/03/24 09:42:47;;;;;;;18.70;6.30;;;;;;;11.54;23.52;99512.48;25173;1313;3027306;-70
2022/03/24 09:45:17;;;;;;;28.00;9.40;;;;;;;11.54;23.37;99516.15;25167;1313;3028946;-70
2022/03/24 09:47:47;;;;;;;18.50;7.60;;;;;;;11.58;23.15;99509.77;25168;1313;3026993;-70
2022/03/24 09:50:17;;;;;;;15.10;7.40;;;;;;;11.59;23.35;99511.83;25220;1313;3026643;-70
2022/03/24 09:52:46;;;;;;;13.30;6.80;;;;;;;11.49;23.50;99508.60;25141;1315;3055290;-70
2022/03/24 09:55:17;;;;;;;16.10;7.10;;;;;;;11.50;23.30;99502.59;25165;1313;3026429;-71
2022/03/24 09:57:47;;;;;;;16.90;7.20;;;;;;;11.78;23.18;99501.95;25214;1313;3026807;-70
2022/03/24 10:00:16;;;;;;;20.80;9.50;;;;;;;11.62;23.19;99497.77;25196;1313;3026576;-70
2022/03/24 10:03:15;;;;;;;18.10;8.00;;;;;;;11.62;23.13;99499.70;25118;1313;3053466;-70
2022/03/24 10:06:06;;;;;;;18.30;9.20;;;;;;;11.83;23.04;99490.23;25217;1313;3053246;-70
2022/03/24 10:08:36;;;;;;;16.10;7.30;;;;;;;11.96;22.76;99492.60;25150;1313;3054137;-70
2022/03/24 10:11:09;;;;;;;15.10;6.80;;;;;;;12.12;22.85;99481.70;25128;1314;3030086;-70
2022/03/24 10:13:41;;;;;;;18.40;7.00;;;;;;;12.31;22.37;99482.92;25140;1313;3029691;-70
2022/03/24 10:16:13;;;;;;;19.60;7.00;;;;;;;12.31;22.55;99480.13;25198;1313;3051999;-70
2022/03/24 10:19:03;;;;;;;16.60;6.20;;;;;;;12.33;22.25;99480.13;25178;1313;3029789;-70
2022/03/24 10:21:35;;;;;;;13.10;6.60;;;;;;;12.27;22.01;99476.31;25146;1313;3057130;-70
2022/03/24 10:24:27;;;;;;;18.20;7.10;;;;;;;12.22;21.82;99471.40;25212;1313;3052821;-69
2022/03/24 10:27:00;;;;;;;15.40;6.40;;;;;;;12.43;21.96;99469.44;25135;1313;3055970;-70
2022/03/24 10:29:31;;;;;;;13.10;6.60;;;;;;;12.72;22.15;99463.58;25178;1315;3026165;-69
2022/03/24 10:32:01;;;;;;;15.40;7.40;;;;;;;12.92;21.55;99461.67;25190;1313;3028559;-66
2022/03/24 10:34:35;;;;;;;14.50;6.70;;;;;;;12.74;21.38;99459.44;25164;1313;3026904;-67
2022/03/24 10:37:17;;;;;;;14.40;6.80;;;;;;;12.84;21.73;99456.45;25168;1312;3053278;-67
2022/03/24 10:40:03;;;;;;;14.90;6.60;;;;;;;12.70;21.71;99451.77;25110;1313;3052308;-66
2022/03/24 10:42:34;;;;;;;18.30;6.10;;;;;;;12.97;21.58;99443.05;25116;1313;3057685;-65
2022/03/24 10:45:07;;;;;;;14.50;7.00;;;;;;;13.18;21.29;99440.80;25174;1313;3026721;-67
2022/03/24 10:47:56;;;;;;;12.10;7.10;;;;;;;13.27;21.15;99443.75;25144;1313;3028632;-65
2022/03/24 10:50:40;;;;;;;15.30;6.80;;;;;;;13.20;20.88;99431.54;25157;1313;3051674;-64
2022/03/24 10:53:12;;;;;;;13.20;7.30;;;;;;;13.29;21.22;99423.69;25186;1312;3069293;-68
2022/03/24 10:55:43;;;;;;;13.30;6.80;;;;;;;13.27;20.77;99426.67;25160;1312;3051892;-68
2022/03/24 10:58:21;;;;;;;20.20;7.90;;;;;;;13.44;21.00;99420.19;25100;1312;3029103;-65
2022/03/24 11:00:52;;;;;;;14.20;7.50;;;;;;;13.29;20.88;99416.30;25111;1313;3069233;-65
2022/03/24 11:03:21;;;;;;;19.70;7.90;;;;;;;13.20;20.91;99408.16;25164;1313;3026329;-66
2022/03/24 11:05:51;;;;;;;15.30;7.80;;;;;;;13.51;21.18;99399.23;25149;1312;3028489;-67
2022/03/24 11:08:41;;;;;;;15.20;7.80;;;;;;;13.72;20.47;99402.98;25138;1313;3052709;-66
2022/03/24 11:11:13;;;;;;;14.30;7.80;;;;;;;13.75;20.48;99397.69;25179;1312;3028737;-65
2022/03/24 11:13:42;;;;;;;15.60;7.80;;;;;;;13.78;20.17;99400.97;25118;1312;3026805;-66
2022/03/24 11:16:12;;;;;;;15.10;6.90;;;;;;;13.56;20.32;99397.80;25080;1313;3029069;-67
2022/03/24 11:19:01;;;;;;;22.30;7.00;;;;;;;13.62;20.43;99390.21;25142;1312;3058987;-67
2022/03/24 11:21:34;;;;;;;16.10;8.70;;;;;;;13.83;20.39;99387.02;25159;1313;3026423;-65
2022/03/24 11:24:03;;;;;;;12.40;7.10;;;;;;;13.77;20.09;99387.45;25085;1312;3026572;-65
2022/03/24 11:26:34;;;;;;;11.80;6.90;;;;;;;13.94;20.22;99378.13;25121;1312;3027099;-65
2022/03/24 11:29:05;;;;;;;15.70;6.50;;;;;;;14.14;20.02;99366.20;25158;1312;3026470;-66
2022/03/24 11:31:34;;;;;;;16.20;7.10;;;;;;;14.00;20.11;99371.33;25165;1313;3026425;-67
2022/03/24 11:34:04;;;;;;;16.80;7.60;;;;;;;13.91;20.11;99375.02;25178;1313;3026396;-64
2022/03/24 11:36:34;;;;;;;15.90;7.20;;;;;;;13.78;20.14;99370.88;25145;1312;3069296;-64
2022/03/24 11:39:05;;;;;;;25.10;8.50;;;;;;;14.08;19.90;99361.03;25117;1313;3025927;-65
2022/03/24 11:41:37;;;;;;;25.40;8.40;;;;;;;14.36;19.35;99355.55;25116;1312;3026219;-65
2022/03/24 11:44:29;;;;;;;20.50;7.90;;;;;;;14.53;19.05;99357.77;25113;1312;3028211;-68
2022/03/24 11:47:00;;;;;;;15.50;7.40;;;;;;;14.58;19.58;99358.21;25123;1312;3058514;-66
2022/03/24 11:49:29;;;;;;;16.20;6.60;;;;;;;14.76;19.42;99355.27;25183;1313;3026718;-65
2022/03/24 11:51:59;;;;;;;13.60;6.90;;;;;;;14.85;18.97;99358.55;25170;1313;3026252;-65
2022/03/24 11:54:36;;;;;;;22.80;8.00;;;;;;;14.95;19.13;99358.51;25155;1312;3026492;-66
2022/03/24 11:57:29;;;;;;;14.10;7.50;;;;;;;14.91;18.91;99354.20;25161;1312;3049963;-66
2022/03/24 12:00:13;;;;;;;17.40;7.60;;;;;;;14.88;18.63;99350.06;25132;1312;3055736;-68
2022/03/24 12:02:46;;;;;;;;;;;;;;;14.79;19.14;99345.67;25143;1313;3052290;-67
2022/03/24 12:05:15;;;;;;;22.10;8.10;;;;;;;14.88;19.18;99338.61;25159;1312;3028857;-65
2022/03/24 12:07:44;;;;;;;25.40;7.80;;;;;;;14.92;18.80;99340.23;25162;1313;3026610;-68
2022/03/24 12:10:30;;;;;;;26.90;10.10;;;;;;;14.89;18.99;99335.66;25165;1313;3050959;-66
2022/03/24 12:13:22;;;;;;;28.60;14.00;;;;;;;14.69;18.76;99337.48;25140;1314;3070516;-67
2022/03/24 12:16:23;;;;;;;19.70;7.80;;;;;;;14.71;18.62;99333.92;25112;1313;3051779;-67
2022/03/24 12:19:37;;;;;;;15.30;7.00;;;;;;;14.93;18.21;99335.20;25104;1313;3053390;-64
2022/03/24 12:22:36;;;;;;;20.30;8.40;;;;;;;15.16;18.29;99331.95;25151;1313;3055189;-66
2022/03/24 12:25:05;;;;;;;14.40;6.50;;;;;;;15.37;18.03;99324.52;25051;1312;3055667;-67
2022/03/24 12:27:54;;;;;;;15.30;6.90;;;;;;;15.51;17.80;99324.80;25135;1313;3026449;-65
2022/03/24 12:30:26;;;;;;;14.80;7.20;;;;;;;15.25;18.13;99327.60;25186;1313;3055734;-63
2022/03/24 12:33:06;;;;;;;16.60;7.70;;;;;;;15.38;17.96;99327.08;25115;1313;3026433;-64
2022/03/24 12:35:44;;;;;;;12.60;6.40;;;;;;;15.28;17.85;99327.61;25117;1313;3071443;-65
2022/03/24 12:38:23;;;;;;;12.00;6.30;;;;;;;15.23;17.48;99324.42;25148;1313;3049559;-68
2022/03/24 12:41:06;;;;;;;13.00;6.30;;;;;;;15.30;17.66;99322.30;25166;1313;3055417;-67
2022/03/24 12:43:54;;;;;;;16.90;6.60;;;;;;;15.31;17.66;99317.97;25207;1313;3054911;-66
2022/03/24 12:46:32;;;;;;;10.30;6.40;;;;;;;15.40;17.26;99317.09;25095;1311;3058702;-69
2022/03/24 12:49:10;;;;;;;21.20;6.80;;;;;;;15.66;17.14;99312.84;25163;1313;3050450;-66
2022/03/24 12:52:02;;;;;;;12.30;6.70;;;;;;;15.91;17.04;99310.55;25168;1313;3056137;-65
2022/03/24 12:54:48;;;;;;;17.90;9.10;;;;;;;15.97;17.13;99311.58;25124;1312;3054396;-68
2022/03/24 12:57:26;;;;;;;17.90;7.60;;;;;;;15.98;16.95;99309.38;25152;1312;3071738;-66
2022/03/24 12:59:57;;;;;;;24.00;10.80;;;;;;;15.90;17.20;99302.65;25164;1313;3052287;-66
2022/03/24 13:02:26;;;;;;;28.00;12.00;;;;;;;16.00;17.09;99297.76;25162;1313;3026768;-64